Time;durP1;ratioP1;P1;durP2;ratioP2;P2;SDS_P1;SDS_P2;PMS_P1;PMS_P2;Temp;Humidity;BMP_temperature;BMP_pressure;BME280_temperature;BME280_humidity;BME280_pressure;Samples;Min_cycle;Max_cycle;Signal;HPM_P1;HPM_P2
2022/12/03 00:01:21;;;;;;;16.95;7.18;;;;;;;;;;4749747;30;21465;-88
2022/12/03 00:03:47;;;;;;;15.55;6.70;;;;;;;;;;4765629;30;20114;-88
2022/12/03 00:06:12;;;;;;;16.17;6.93;;;;;;;;;;4752261;30;20046;-90
2022/12/03 00:08:37;;;;;;;15.20;7.07;;;;;;;;;;4772996;30;20450;-91
2022/12/03 00:11:03;;;;;;;15.13;7.00;;;;;;;;;;4750562;30;20031;-89
2022/12/03 00:13:28;;;;;;;15.90;7.68;;;;;;;;;;4769176;30;20032;-90
2022/12/03 00:15:53;;;;;;;17.25;7.65;;;;;;;;;;4770935;30;20123;-88
2022/12/03 00:18:19;;;;;;;15.55;6.63;;;;;;;;;;4759175;30;20608;-88
2022/12/03 00:20:44;;;;;;;16.63;7.18;;;;;;;;;;4757199;30;20067;-86
2022/12/03 00:23:10;;;;;;;17.13;6.80;;;;;;;;;;4764963;30;20097;-88
2022/12/03 00:25:35;;;;;;;16.38;7.70;;;;;;;;;;4754844;30;20035;-89
2022/12/03 00:28:00;;;;;;;17.15;8.18;;;;;;;;;;4769653;30;20115;-89
2022/12/03 00:30:26;;;;;;;17.30;8.00;;;;;;;;;;4753038;30;20047;-89
2022/12/03 00:32:51;;;;;;;16.65;7.40;;;;;;;;;;4771842;30;20035;-86
2022/12/03 00:35:17;;;;;;;16.17;6.88;;;;;;;;;;4752111;30;20034;-88
2022/12/03 00:37:42;;;;;;;16.02;7.28;;;;;;;;;;4770773;30;20035;-87
2022/12/03 00:40:09;;;;;;;17.80;7.13;;;;;;;;;;4754024;30;20035;-88
2022/12/03 00:42:35;;;;;;;16.77;8.13;;;;;;;;;;4765419;30;20059;-86
2022/12/03 00:45:00;;;;;;;17.25;7.72;;;;;;;;;;4761816;30;20063;-88
2022/12/03 00:47:26;;;;;;;17.98;7.05;;;;;;;;;;4749448;30;20039;-79
2022/12/03 00:49:51;;;;;;;16.75;8.15;;;;;;;;;;4769658;30;20043;-80
2022/12/03 00:52:16;;;;;;;15.82;7.63;;;;;;;;;;4769987;30;20084;-79
2022/12/03 00:54:42;;;;;;;16.38;7.82;;;;;;;;;;4766755;30;20093;-79
2022/12/03 00:57:07;;;;;;;13.80;5.75;;;;;;;;;;4749650;30;20027;-80
2022/12/03 00:59:33;;;;;;;20.20;8.50;;;;;;;;;;4749820;30;20062;-79
2022/12/03 01:01:58;;;;;;;18.67;8.13;;;;;;;;;;4772997;30;20568;-79
2022/12/03 01:04:23;;;;;;;17.85;8.30;;;;;;;;;;4764442;30;21263;-80
2022/12/03 01:06:49;;;;;;;17.55;7.53;;;;;;;;;;4748751;30;20957;-81
2022/12/03 01:09:14;;;;;;;20.00;7.88;;;;;;;;;;4751619;30;20048;-80
2022/12/03 01:11:40;;;;;;;20.83;7.65;;;;;;;;;;4769220;30;20043;-79
2022/12/03 01:14:08;;;;;;;20.90;7.65;;;;;;;;;;4761952;30;20032;-79
2022/12/03 01:16:34;;;;;;;14.93;7.70;;;;;;;;;;4762387;30;20028;-79
2022/12/03 01:18:59;;;;;;;16.65;8.00;;;;;;;;;;4762619;30;20099;-79
2022/12/03 01:21:25;;;;;;;17.90;8.10;;;;;;;;;;4758916;30;20040;-80
2022/12/03 01:23:50;;;;;;;17.00;8.35;;;;;;;;;;4765508;30;20031;-80
2022/12/03 01:26:16;;;;;;;16.50;7.57;;;;;;;;;;4743708;30;20036;-79
2022/12/03 01:28:41;;;;;;;17.98;8.73;;;;;;;;;;4762660;30;20130;-80
2022/12/03 01:33:51;;;;;;;17.15;7.65;;;;;;;;;;4765037;30;20558;-80
2022/12/03 01:36:17;;;;;;;17.85;7.78;;;;;;;;;;4759270;30;20031;-79
2022/12/03 01:38:42;;;;;;;17.10;7.93;;;;;;;;;;4762491;30;20070;-80
2022/12/03 01:41:08;;;;;;;18.42;8.70;;;;;;;;;;4743311;30;20097;-79
2022/12/03 01:43:33;;;;;;;19.60;8.25;;;;;;;;;;4745835;30;20505;-79
2022/12/03 01:45:59;;;;;;;21.25;9.52;;;;;;;;;;4761629;30;20031;-79
2022/12/03 01:48:25;;;;;;;17.73;8.15;;;;;;;;;;4743319;30;20122;-79
2022/12/03 01:50:51;;;;;;;18.90;7.55;;;;;;;;;;4761670;30;20122;-79
2022/12/03 01:53:17;;;;;;;17.30;8.27;;;;;;;;;;4745849;30;20810;-80
2022/12/03 01:55:44;;;;;;;17.08;8.27;;;;;;;;;;4739221;30;20043;-80
2022/12/03 01:58:12;;;;;;;16.15;7.10;;;;;;;;;;4758170;30;20046;-80
2022/12/03 02:00:39;;;;;;;16.92;7.28;;;;;;;;;;4749679;30;20036;-79
2022/12/03 02:03:14;;;;;;;16.55;7.60;;;;;;;;;;4746904;30;20661;-80
2022/12/03 02:05:39;;;;;;;16.60;8.50;;;;;;;;;;4764884;30;20027;-80
2022/12/03 02:08:31;;;;;;;16.75;7.38;;;;;;;;;;4747657;30;20050;-80
2022/12/03 02:11:01;;;;;;;18.48;7.88;;;;;;;;;;4764213;30;20039;-79
2022/12/03 02:13:27;;;;;;;17.60;8.52;;;;;;;;;;4761410;30;20654;-79
2022/12/03 02:15:53;;;;;;;19.38;8.30;;;;;;;;;;4744247;30;20031;-80
2022/12/03 02:18:18;;;;;;;17.02;7.72;;;;;;;;;;4762693;30;20040;-79
2022/12/03 02:21:07;;;;;;;18.60;8.43;;;;;;;;;;4754808;30;20097;-79
2022/12/03 02:24:09;;;;;;;18.42;8.85;;;;;;;;;;4750324;30;20043;-80
2022/12/03 02:26:34;;;;;;;16.52;7.93;;;;;;;;;;4765804;30;20074;-80
2022/12/03 02:29:01;;;;;;;17.50;8.70;;;;;;;;;;4768388;30;20071;-80
2022/12/03 02:31:26;;;;;;;20.73;8.80;;;;;;;;;;4748755;30;20035;-80
2022/12/03 02:33:52;;;;;;;19.92;8.27;;;;;;;;;;4751048;30;20354;-80
2022/12/03 02:36:18;;;;;;;17.33;8.18;;;;;;;;;;4750702;30;20031;-80
2022/12/03 02:38:45;;;;;;;19.50;8.52;;;;;;;;;;4760989;30;20047;-79
2022/12/03 02:42:33;;;;;;;23.38;8.57;;;;;;;;;;4746196;30;20040;-80
2022/12/03 02:44:00;;;;;;;18.27;8.18;;;;;;;;;;4758466;30;20031;-81
2022/12/03 02:46:26;;;;;;;20.27;8.60;;;;;;;;;;4757260;30;20036;-80
2022/12/03 02:48:51;;;;;;;19.48;8.43;;;;;;;;;;4758348;30;20031;-79
2022/12/03 02:51:17;;;;;;;20.63;9.30;;;;;;;;;;4746927;30;20093;-80
2022/12/03 02:53:47;;;;;;;18.13;9.10;;;;;;;;;;4738473;30;20047;-80
2022/12/03 02:56:19;;;;;;;18.65;7.75;;;;;;;;;;4755735;30;20398;-80
2022/12/03 02:58:47;;;;;;;20.50;8.40;;;;;;;;;;4741783;30;20101;-80
2022/12/03 03:01:15;;;;;;;22.30;8.88;;;;;;;;;;4740939;30;20717;-79
2022/12/03 03:03:42;;;;;;;19.85;8.15;;;;;;;;;;4755959;30;20047;-79
2022/12/03 03:06:08;;;;;;;19.55;8.48;;;;;;;;;;4760422;30;20123;-80
2022/12/03 03:08:35;;;;;;;16.60;8.40;;;;;;;;;;4757463;30;20048;-80
2022/12/03 03:11:01;;;;;;;20.63;9.48;;;;;;;;;;4758505;30;20070;-80
2022/12/03 03:13:29;;;;;;;21.55;9.90;;;;;;;;;;4756624;30;20126;-80
2022/12/03 03:15:55;;;;;;;20.40;8.13;;;;;;;;;;4755351;30;20035;-80
2022/12/03 03:18:20;;;;;;;21.05;9.32;;;;;;;;;;4747671;30;20494;-79
2022/12/03 03:20:46;;;;;;;21.98;9.60;;;;;;;;;;4743208;30;20036;-79
2022/12/03 03:23:16;;;;;;;21.60;9.95;;;;;;;;;;4763103;30;20549;-79
2022/12/03 03:25:45;;;;;;;17.52;8.07;;;;;;;;;;4755458;30;20619;-79
2022/12/03 03:28:12;;;;;;;19.33;9.50;;;;;;;;;;4769967;30;20042;-80
2022/12/03 03:30:39;;;;;;;23.38;10.27;;;;;;;;;;4744327;30;20489;-80
2022/12/03 03:33:05;;;;;;;15.38;8.52;;;;;;;;;;4745954;30;20040;-79
2022/12/03 03:35:31;;;;;;;20.20;9.25;;;;;;;;;;4754271;30;20390;-80
2022/12/03 03:37:57;;;;;;;18.75;9.63;;;;;;;;;;4740919;30;20117;-79
2022/12/03 03:40:23;;;;;;;19.98;9.20;;;;;;;;;;4745949;30;20031;-80
2022/12/03 03:42:49;;;;;;;19.48;9.20;;;;;;;;;;4743527;30;20490;-79
2022/12/03 03:45:14;;;;;;;21.20;9.85;;;;;;;;;;4761348;30;20084;-80
2022/12/03 03:47:41;;;;;;;17.98;8.98;;;;;;;;;;4763145;30;20043;-79
2022/12/03 03:50:09;;;;;;;21.30;9.77;;;;;;;;;;4744134;30;20130;-81
2022/12/03 03:52:36;;;;;;;23.65;9.50;;;;;;;;;;4753640;30;20042;-80
2022/12/03 03:55:02;;;;;;;21.08;9.50;;;;;;;;;;4743128;30;20034;-80
2022/12/03 03:57:28;;;;;;;22.02;9.70;;;;;;;;;;4743693;30;20032;-80
2022/12/03 03:59:53;;;;;;;20.27;9.00;;;;;;;;;;4754979;30;20127;-80
2022/12/03 04:02:20;;;;;;;21.60;10.55;;;;;;;;;;4739853;30;20043;-80
2022/12/03 04:04:46;;;;;;;22.70;10.45;;;;;;;;;;4753923;30;20213;-79
2022/12/03 04:07:12;;;;;;;20.90;9.75;;;;;;;;;;4753610;30;20042;-80
2022/12/03 04:09:38;;;;;;;20.52;9.65;;;;;;;;;;4739075;30;20494;-80
2022/12/03 04:14:47;;;;;;;17.05;8.25;;;;;;;;;;4754239;30;20074;-80
2022/12/03 04:17:12;;;;;;;18.98;8.98;;;;;;;;;;4743836;30;20119;-80
2022/12/03 04:19:38;;;;;;;18.00;8.60;;;;;;;;;;4742218;30;20088;-79
2022/12/03 04:24:47;;;;;;;19.58;9.00;;;;;;;;;;4761011;30;20134;-81
2022/12/03 04:29:56;;;;;;;21.10;9.23;;;;;;;;;;4747159;30;20101;-81
2022/12/03 04:37:52;;;;;;;16.13;8.20;;;;;;;;;;4757878;30;20135;-79
2022/12/03 04:43:01;;;;;;;16.63;9.20;;;;;;;;;;4761408;30;20051;-81
2022/12/03 04:45:27;;;;;;;16.25;7.90;;;;;;;;;;4758728;30;20465;-80
2022/12/03 04:47:52;;;;;;;19.55;9.02;;;;;;;;;;4743669;30;20091;-79
2022/12/03 04:50:17;;;;;;;16.73;7.60;;;;;;;;;;4761135;30;20062;-79
2022/12/03 04:52:43;;;;;;;19.75;8.30;;;;;;;;;;4737894;30;20043;-80
2022/12/03 04:55:08;;;;;;;19.45;8.70;;;;;;;;;;4759854;30;20194;-80
2022/12/03 04:57:34;;;;;;;18.52;8.75;;;;;;;;;;4752507;30;20459;-80
2022/12/03 04:59:59;;;;;;;18.27;8.65;;;;;;;;;;4754911;30;20468;-79
2022/12/03 05:02:25;;;;;;;17.58;8.63;;;;;;;;;;4742287;30;21115;-79
2022/12/03 05:04:50;;;;;;;16.40;8.50;;;;;;;;;;4755058;30;20398;-80
2022/12/03 05:07:15;;;;;;;20.17;8.93;;;;;;;;;;4737179;30;20057;-80
2022/12/03 05:09:41;;;;;;;18.30;8.82;;;;;;;;;;4739843;30;20105;-80
2022/12/03 05:12:06;;;;;;;15.40;8.15;;;;;;;;;;4752872;30;20264;-80
2022/12/03 05:14:32;;;;;;;19.15;8.52;;;;;;;;;;4732685;30;20131;-80
2022/12/03 05:16:57;;;;;;;15.95;8.52;;;;;;;;;;4742842;30;20039;-79
2022/12/03 05:20:40;;;;;;;17.23;7.68;;;;;;;;;;4762288;30;20395;-80
2022/12/03 05:22:08;;;;;;;17.20;8.05;;;;;;;;;;4761455;30;20078;-79
2022/12/03 05:24:33;;;;;;;16.65;8.35;;;;;;;;;;4762273;30;20138;-79
2022/12/03 05:26:58;;;;;;;18.23;8.38;;;;;;;;;;4762708;30;20036;-80
2022/12/03 05:29:24;;;;;;;17.33;8.63;;;;;;;;;;4751604;30;20055;-80
2022/12/03 05:31:49;;;;;;;21.13;9.20;;;;;;;;;;4752011;30;20028;-80
2022/12/03 05:34:15;;;;;;;17.63;8.48;;;;;;;;;;4745395;30;20044;-79
2022/12/03 05:36:40;;;;;;;16.02;7.50;;;;;;;;;;4759532;30;20501;-80
2022/12/03 05:39:05;;;;;;;17.83;7.95;;;;;;;;;;4759721;30;20042;-79
2022/12/03 05:44:14;;;;;;;21.00;8.50;;;;;;;;;;4762199;30;20037;-80
2022/12/03 05:46:40;;;;;;;19.15;8.75;;;;;;;;;;4759068;30;20039;-80
2022/12/03 05:49:05;;;;;;;19.23;8.93;;;;;;;;;;4742326;30;20059;-79
2022/12/03 05:51:31;;;;;;;17.45;8.20;;;;;;;;;;4742270;30;20040;-79
2022/12/03 05:53:56;;;;;;;19.90;8.60;;;;;;;;;;4764886;30;20126;-80
2022/12/03 05:56:21;;;;;;;17.70;7.93;;;;;;;;;;4743313;30;20032;-80
2022/12/03 05:58:47;;;;;;;20.45;8.30;;;;;;;;;;4743802;30;20044;-80
2022/12/03 06:01:12;;;;;;;21.52;8.93;;;;;;;;;;4757643;30;20046;-80
2022/12/03 06:03:37;;;;;;;18.15;8.48;;;;;;;;;;4764248;30;20032;-80
2022/12/03 06:06:03;;;;;;;21.17;9.15;;;;;;;;;;4761523;30;20182;-79
2022/12/03 06:08:28;;;;;;;16.67;8.80;;;;;;;;;;4744660;30;20052;-80
2022/12/03 06:11:09;;;;;;;18.23;8.43;;;;;;;;;;4711620;30;20471;-80
2022/12/03 06:13:34;;;;;;;21.70;8.88;;;;;;;;;;4745418;30;20177;-79
2022/12/03 06:16:00;;;;;;;20.33;8.68;;;;;;;;;;4751821;30;20120;-80
2022/12/03 06:18:25;;;;;;;19.38;8.82;;;;;;;;;;4745349;30;20066;-80
2022/12/03 06:20:50;;;;;;;19.13;8.70;;;;;;;;;;4760584;30;20047;-79
2022/12/03 06:23:16;;;;;;;21.33;9.48;;;;;;;;;;4740904;30;20171;-79
2022/12/03 06:25:41;;;;;;;18.98;9.07;;;;;;;;;;4754149;30;20129;-79
2022/12/03 06:28:07;;;;;;;20.85;9.77;;;;;;;;;;4753546;30;20478;-80
2022/12/03 06:30:34;;;;;;;22.60;9.13;;;;;;;;;;4753741;30;20040;-80
2022/12/03 06:32:59;;;;;;;16.92;8.05;;;;;;;;;;4754628;30;20089;-79
2022/12/03 06:35:24;;;;;;;19.58;9.07;;;;;;;;;;4742068;30;20394;-80
2022/12/03 06:37:50;;;;;;;19.80;8.93;;;;;;;;;;4740729;30;20044;-80
2022/12/03 06:40:15;;;;;;;19.67;8.80;;;;;;;;;;4756117;30;20031;-80
2022/12/03 06:42:41;;;;;;;22.38;9.75;;;;;;;;;;4738807;30;20040;-80
2022/12/03 06:45:07;;;;;;;21.80;9.95;;;;;;;;;;4743315;30;21517;-80
2022/12/03 06:47:32;;;;;;;20.10;9.70;;;;;;;;;;4759507;30;20032;-79
2022/12/03 06:49:58;;;;;;;19.33;8.40;;;;;;;;;;4748028;30;20496;-81
2022/12/03 06:52:23;;;;;;;20.73;9.57;;;;;;;;;;4746318;30;20024;-79
2022/12/03 06:54:48;;;;;;;19.60;8.77;;;;;;;;;;4742068;30;20032;-79
2022/12/03 06:57:14;;;;;;;16.80;7.78;;;;;;;;;;4761907;30;20401;-79
2022/12/03 06:59:39;;;;;;;20.48;8.73;;;;;;;;;;4762623;30;20036;-79
2022/12/03 07:02:05;;;;;;;19.38;8.35;;;;;;;;;;4755986;30;20482;-80
2022/12/03 07:04:30;;;;;;;20.25;8.77;;;;;;;;;;4740017;30;20043;-81
2022/12/03 07:06:56;;;;;;;19.60;9.48;;;;;;;;;;4753956;30;20044;-80
2022/12/03 07:09:21;;;;;;;20.00;8.95;;;;;;;;;;4751164;30;20042;-79
2022/12/03 07:11:47;;;;;;;20.85;9.45;;;;;;;;;;4747434;30;20077;-79
2022/12/03 07:14:12;;;;;;;20.65;8.63;;;;;;;;;;4762739;30;20123;-80
2022/12/03 07:16:38;;;;;;;21.58;9.07;;;;;;;;;;4762264;30;20050;-79
2022/12/03 07:19:05;;;;;;;23.27;9.00;;;;;;;;;;4745633;30;20388;-80
2022/12/03 07:21:31;;;;;;;20.85;9.27;;;;;;;;;;4758755;30;20039;-79
2022/12/03 07:23:56;;;;;;;18.33;8.02;;;;;;;;;;4743815;30;20035;-80
2022/12/03 07:26:22;;;;;;;22.90;9.07;;;;;;;;;;4757345;30;20123;-80
2022/12/03 07:28:47;;;;;;;21.50;9.00;;;;;;;;;;4748291;30;20051;-80
2022/12/03 07:31:13;;;;;;;17.30;7.13;;;;;;;;;;4760969;30;20043;-79
2022/12/03 07:33:38;;;;;;;17.45;8.10;;;;;;;;;;4741295;30;20502;-80
2022/12/03 07:36:04;;;;;;;17.05;7.85;;;;;;;;;;4760691;30;20711;-79
2022/12/03 07:38:29;;;;;;;18.25;7.63;;;;;;;;;;4760563;30;20072;-79
2022/12/03 07:40:55;;;;;;;18.40;8.15;;;;;;;;;;4761914;30;20023;-79
2022/12/03 07:43:20;;;;;;;19.50;9.15;;;;;;;;;;4756631;30;20139;-80
2022/12/03 07:45:46;;;;;;;20.60;7.82;;;;;;;;;;4757291;29;20042;-79
2022/12/03 07:48:11;;;;;;;20.33;7.43;;;;;;;;;;4754641;30;20040;-79
2022/12/03 07:50:36;;;;;;;19.10;8.15;;;;;;;;;;4757645;30;20034;-80
2022/12/03 07:53:02;;;;;;;19.90;8.13;;;;;;;;;;4742080;30;20052;-80
2022/12/03 07:55:27;;;;;;;21.08;7.97;;;;;;;;;;4754524;30;20044;-80
2022/12/03 07:57:52;;;;;;;18.27;7.93;;;;;;;;;;4754954;30;20063;-81
2022/12/03 08:00:19;;;;;;;21.20;8.80;;;;;;;;;;4735509;30;20131;-80
2022/12/03 08:02:44;;;;;;;22.40;8.10;;;;;;;;;;4751574;30;20102;-81
2022/12/03 08:05:10;;;;;;;20.10;8.23;;;;;;;;;;4748011;30;20032;-80
2022/12/03 08:07:36;;;;;;;21.15;9.05;;;;;;;;;;4756081;30;20070;-80
2022/12/03 08:10:04;;;;;;;21.52;9.25;;;;;;;;;;4763563;30;20032;-79
2022/12/03 08:12:39;;;;;;;20.98;8.75;;;;;;;;;;4764537;30;20039;-80
2022/12/03 08:15:17;;;;;;;23.63;9.52;;;;;;;;;;4744284;30;20044;-80
2022/12/03 08:17:44;;;;;;;21.05;8.20;;;;;;;;;;4740883;30;20043;-80
2022/12/03 08:20:21;;;;;;;18.92;8.52;;;;;;;;;;4754021;30;20111;-80
2022/12/03 08:22:48;;;;;;;22.83;8.60;;;;;;;;;;4737447;30;20050;-81
2022/12/03 08:25:20;;;;;;;21.88;8.73;;;;;;;;;;4752596;30;20036;-79
2022/12/03 08:27:45;;;;;;;19.30;8.35;;;;;;;;;;4749018;30;20032;-80
2022/12/03 08:30:13;;;;;;;19.85;8.13;;;;;;;;;;4760017;30;20097;-79
2022/12/03 08:32:39;;;;;;;18.45;8.52;;;;;;;;;;4754710;30;20028;-80
2022/12/03 08:35:11;;;;;;;20.23;8.35;;;;;;;;;;4766184;30;20393;-80
2022/12/03 08:37:37;;;;;;;24.52;8.43;;;;;;;;;;4747210;30;20845;-80
2022/12/03 08:40:22;;;;;;;21.45;9.23;;;;;;;;;;4762544;30;20032;-79
2022/12/03 08:42:47;;;;;;;19.52;8.25;;;;;;;;;;4742198;30;20043;-80
2022/12/03 08:45:39;;;;;;;22.20;9.13;;;;;;;;;;4736324;30;20044;-80
2022/12/03 08:48:11;;;;;;;22.23;8.27;;;;;;;;;;4765328;30;20051;-79
2022/12/03 08:50:41;;;;;;;24.92;9.60;;;;;;;;;;4760460;30;20035;-79
2022/12/03 08:53:13;;;;;;;25.45;9.30;;;;;;;;;;4765394;30;20393;-79
2022/12/03 08:55:44;;;;;;;26.17;9.73;;;;;;;;;;4744895;30;20027;-81
2022/12/03 08:58:37;;;;;;;28.30;10.57;;;;;;;;;;4750225;30;20074;-79
2022/12/03 09:01:22;;;;;;;23.83;10.02;;;;;;;;;;4751897;30;20035;-79
2022/12/03 09:03:55;;;;;;;24.98;9.68;;;;;;;;;;4765570;29;20036;-79
2022/12/03 09:07:01;;;;;;;26.17;10.15;;;;;;;;;;4755421;30;20047;-79
2022/12/03 09:09:27;;;;;;;21.02;8.77;;;;;;;;;;4755019;30;20171;-79
2022/12/03 09:12:42;;;;;;;28.70;10.82;;;;;;;;;;4750290;30;20619;-79
2022/12/03 09:43:50;;;;;;;24.95;9.18;;;;;;;;;;4573755;31;20076;-79
2022/12/03 09:57:54;;;;;;;22.02;8.20;;;;;;;;;;4542753;31;20140;-80
2022/12/03 10:05:07;;;;;;;;;;;;;;;;;;;;;
2022/12/03 10:22:48;;;;;;;27.63;8.55;;;;;;;;;;4498442;31;20258;-80
2022/12/03 10:25:16;;;;;;;19.20;7.40;;;;;;;;;;4556381;30;20077;-79
2022/12/03 10:27:53;;;;;;;23.35;8.00;;;;;;;;;;4743412;30;20448;-79
2022/12/03 10:30:21;;;;;;;19.50;8.80;;;;;;;;;;4757396;30;20028;-78
2022/12/03 10:32:48;;;;;;;24.48;8.60;;;;;;;;;;4737555;30;20128;-79
2022/12/03 10:35:17;;;;;;;23.45;8.15;;;;;;;;;;4753674;30;20439;-79
2022/12/03 10:38:04;;;;;;;20.63;8.68;;;;;;;;;;4753442;30;20160;-79
2022/12/03 10:41:57;;;;;;;23.50;7.70;;;;;;;;;;4726528;30;20029;-79
2022/12/03 10:44:18;;;;;;;23.38;8.15;;;;;;;;;;4742145;30;20055;-79
2022/12/03 10:46:45;;;;;;;24.17;8.70;;;;;;;;;;4756309;30;20058;-78
2022/12/03 10:53:24;;;;;;;23.80;9.13;;;;;;;;;;4751874;30;20093;-79
2022/12/03 10:59:45;;;;;;;23.25;8.27;;;;;;;;;;4754849;30;20379;-80
2022/12/03 11:02:24;;;;;;;23.00;8.23;;;;;;;;;;4738245;30;20051;-79
2022/12/03 11:05:48;;;;;;;;;;;;;;;;;;;;;
2022/12/03 11:09:12;;;;;;;20.40;7.95;;;;;;;;;;4669054;30;20038;-79
2022/12/03 11:13:48;;;;;;;32.80;9.95;;;;;;;;;;4732570;30;20028;-80
2022/12/03 11:16:41;;;;;;;22.42;8.30;;;;;;;;;;4704744;30;20049;-79
2022/12/03 11:20:00;;;;;;;20.70;7.28;;;;;;;;;;4707562;30;20067;-80
2022/12/03 11:28:11;;;;;;;;;;;;;;;;;;;;;
2022/12/03 11:29:59;;;;;;;20.30;7.93;;;;;;;;;;4667632;30;20053;-79
2022/12/03 11:32:37;;;;;;;22.25;9.23;;;;;;;;;;4695428;30;20037;-79
2022/12/03 11:35:27;;;;;;;22.63;8.88;;;;;;;;;;4706240;30;20079;-79
2022/12/03 11:37:52;;;;;;;20.17;7.63;;;;;;;;;;4750561;30;20109;-80
2022/12/03 11:40:17;;;;;;;22.27;8.20;;;;;;;;;;4746740;30;20036;-80
2022/12/03 11:42:45;;;;;;;22.00;9.15;;;;;;;;;;4752384;30;20035;-79
2022/12/03 11:45:26;;;;;;;19.92;8.80;;;;;;;;;;4724745;30;20044;-80
2022/12/03 11:47:58;;;;;;;18.58;7.72;;;;;;;;;;4728971;30;20486;-79
2022/12/03 11:50:28;;;;;;;21.08;8.13;;;;;;;;;;4740827;30;20047;-79
2022/12/03 11:53:10;;;;;;;19.83;7.93;;;;;;;;;;4736976;30;20037;-79
2022/12/03 11:55:38;;;;;;;21.92;7.80;;;;;;;;;;4749159;30;20122;-79
2022/12/03 11:58:13;;;;;;;20.77;8.40;;;;;;;;;;4744141;30;20028;-80
2022/12/03 12:00:47;;;;;;;22.23;8.75;;;;;;;;;;4747528;30;20031;-79
2022/12/03 12:03:40;;;;;;;22.40;8.70;;;;;;;;;;4741459;30;20490;-79
2022/12/03 12:06:07;;;;;;;19.13;7.57;;;;;;;;;;4751342;30;20038;-79
2022/12/03 12:08:35;;;;;;;23.10;9.13;;;;;;;;;;4747262;30;20036;-80
2022/12/03 12:11:01;;;;;;;20.38;8.73;;;;;;;;;;4748079;30;20048;-80
2022/12/03 12:13:30;;;;;;;19.38;8.18;;;;;;;;;;4745697;30;20131;-80
2022/12/03 12:16:24;;;;;;;24.58;9.20;;;;;;;;;;4746648;30;20041;-79
2022/12/03 12:18:52;;;;;;;23.35;9.15;;;;;;;;;;4747155;30;20039;-80
2022/12/03 12:21:46;;;;;;;25.05;10.20;;;;;;;;;;4763607;30;20100;-80
2022/12/03 12:24:30;;;;;;;;;;;;;;;;;;4749436;30;20036;-81
2022/12/03 12:26:57;;;;;;;19.83;7.60;;;;;;;;;;4763476;30;19933;-80
2022/12/03 12:29:23;;;;;;;21.15;8.40;;;;;;;;;;4761244;30;20489;-80
2022/12/03 12:31:49;;;;;;;28.92;9.20;;;;;;;;;;4754690;30;20044;-79
2022/12/03 12:34:14;;;;;;;22.25;8.70;;;;;;;;;;4752145;30;20114;-80
2022/12/03 12:36:40;;;;;;;21.70;8.98;;;;;;;;;;4758760;30;20047;-80
2022/12/03 12:39:23;;;;;;;22.98;9.45;;;;;;;;;;4749508;30;20035;-80
2022/12/03 12:41:50;;;;;;;24.83;9.35;;;;;;;;;;4749655;30;20562;-81
2022/12/03 12:44:17;;;;;;;22.20;9.48;;;;;;;;;;4748191;30;20039;-79
2022/12/03 13:08:17;;;;;;;21.10;8.40;;;;;;;;;;4710971;30;20053;-81
2022/12/03 13:14:24;;;;;;;24.10;9.10;;;;;;;;;;4710182;30;20057;-80
2022/12/03 13:17:43;;;;;;;20.35;8.35;;;;;;;;;;4704889;30;20522;-80
2022/12/03 13:24:31;;;;;;;;;;;;;;;;;;;;;
2022/12/03 13:30:43;;;;;;;18.40;8.07;;;;;;;;;;4626380;30;20082;-80
2022/12/03 13:37:25;;;;;;;19.55;7.30;;;;;;;;;;4639485;30;20318;-80
2022/12/03 13:44:12;;;;;;;19.27;8.05;;;;;;;;;;4530517;31;20137;-80
2022/12/03 13:50:20;;;;;;;26.85;9.88;;;;;;;;;;4602322;31;20048;-80
2022/12/03 13:52:51;;;;;;;24.42;9.82;;;;;;;;;;4638497;30;20574;-80
2022/12/03 13:55:26;;;;;;;24.40;8.68;;;;;;;;;;4703949;30;20106;-81
2022/12/03 13:57:52;;;;;;;21.88;9.05;;;;;;;;;;4734397;30;20634;-80
2022/12/03 14:00:17;;;;;;;30.52;10.15;;;;;;;;;;4752648;30;20541;-80
2022/12/03 14:02:43;;;;;;;25.10;9.52;;;;;;;;;;4752019;30;20047;-80
2022/12/03 14:05:09;;;;;;;25.13;9.18;;;;;;;;;;4759488;30;20035;-80
2022/12/03 14:07:35;;;;;;;26.17;10.23;;;;;;;;;;4751502;30;20044;-80
2022/12/03 14:10:00;;;;;;;21.83;9.05;;;;;;;;;;4741332;30;20036;-80
2022/12/03 14:12:26;;;;;;;23.50;9.38;;;;;;;;;;4765363;30;20035;-80
2022/12/03 14:14:52;;;;;;;22.90;8.80;;;;;;;;;;4744412;30;20189;-80
2022/12/03 14:17:17;;;;;;;24.50;9.85;;;;;;;;;;4738469;30;20036;-80
2022/12/03 14:19:43;;;;;;;27.38;10.20;;;;;;;;;;4748969;30;20417;-80
2022/12/03 14:22:09;;;;;;;25.65;10.18;;;;;;;;;;4759495;30;20123;-80
2022/12/03 14:24:35;;;;;;;28.05;10.68;;;;;;;;;;4752335;30;20031;-80
2022/12/03 14:27:00;;;;;;;25.95;10.20;;;;;;;;;;4755941;30;20585;-80
2022/12/03 14:29:26;;;;;;;23.33;9.57;;;;;;;;;;4761669;30;20165;-80
2022/12/03 14:31:51;;;;;;;24.70;9.40;;;;;;;;;;4745103;30;20031;-81
2022/12/03 14:34:17;;;;;;;25.98;9.80;;;;;;;;;;4765492;30;20032;-80
2022/12/03 14:36:43;;;;;;;24.73;9.57;;;;;;;;;;4736944;30;20035;-80
2022/12/03 14:39:08;;;;;;;24.52;9.48;;;;;;;;;;4752871;30;20056;-80
2022/12/03 14:44:20;;;;;;;29.83;10.23;;;;;;;;;;4754851;30;20202;-80
2022/12/03 14:46:46;;;;;;;29.45;9.75;;;;;;;;;;4753844;30;20036;-80
2022/12/03 14:49:12;;;;;;;23.40;10.15;;;;;;;;;;4764525;30;20032;-80
2022/12/03 14:51:37;;;;;;;24.77;8.57;;;;;;;;;;4747538;30;20121;-80
2022/12/03 14:54:03;;;;;;;27.83;10.32;;;;;;;;;;4747610;30;20046;-80
2022/12/03 14:56:28;;;;;;;21.23;8.95;;;;;;;;;;4763014;30;20039;-81
2022/12/03 14:58:53;;;;;;;22.40;8.82;;;;;;;;;;4737481;30;20105;-80
2022/12/03 15:01:19;;;;;;;24.80;10.02;;;;;;;;;;4762101;30;20489;-80
2022/12/03 15:03:44;;;;;;;25.73;9.82;;;;;;;;;;4763757;30;20103;-80
2022/12/03 15:06:10;;;;;;;25.30;8.82;;;;;;;;;;4739874;30;20126;-80
2022/12/03 15:08:35;;;;;;;24.35;9.45;;;;;;;;;;4759451;30;20393;-80
2022/12/03 15:11:01;;;;;;;24.08;9.15;;;;;;;;;;4739469;30;20122;-80
2022/12/03 15:13:26;;;;;;;27.25;10.00;;;;;;;;;;4758273;30;20047;-80
2022/12/03 15:15:52;;;;;;;25.48;9.52;;;;;;;;;;4755325;30;20119;-80
2022/12/03 15:18:17;;;;;;;26.63;9.70;;;;;;;;;;4751283;30;20531;-80
2022/12/03 15:20:43;;;;;;;26.70;9.70;;;;;;;;;;4743545;30;20032;-80
2022/12/03 15:23:08;;;;;;;25.00;9.13;;;;;;;;;;4761231;30;20039;-80
2022/12/03 15:25:33;;;;;;;23.40;9.57;;;;;;;;;;4734931;30;20127;-80
2022/12/03 15:27:59;;;;;;;26.48;9.73;;;;;;;;;;4748022;30;20042;-80
2022/12/03 15:30:25;;;;;;;24.80;9.60;;;;;;;;;;4746648;30;20032;-80
2022/12/03 15:32:50;;;;;;;24.55;9.80;;;;;;;;;;4761271;30;20036;-80
2022/12/03 15:35:17;;;;;;;24.00;9.00;;;;;;;;;;4732922;30;20032;-80
2022/12/03 15:37:45;;;;;;;28.42;10.10;;;;;;;;;;4749869;30;20036;-80
2022/12/03 15:40:12;;;;;;;26.33;9.45;;;;;;;;;;4733228;30;20029;-80
2022/12/03 15:42:37;;;;;;;23.05;10.13;;;;;;;;;;4743423;30;20493;-80
2022/12/03 15:45:03;;;;;;;23.85;8.88;;;;;;;;;;4737242;30;20035;-80
2022/12/03 15:47:29;;;;;;;28.27;10.85;;;;;;;;;;4754984;30;20039;-80
2022/12/03 15:49:54;;;;;;;26.67;9.25;;;;;;;;;;4737605;30;20193;-80
2022/12/03 15:52:19;;;;;;;28.90;10.30;;;;;;;;;;4743933;30;20119;-80
2022/12/03 15:54:45;;;;;;;26.75;10.55;;;;;;;;;;4735558;30;20036;-80
2022/12/03 15:57:11;;;;;;;25.50;9.48;;;;;;;;;;4738392;30;20180;-80
2022/12/03 15:59:36;;;;;;;21.70;8.52;;;;;;;;;;4741535;30;20044;-80
2022/12/03 16:02:02;;;;;;;23.48;9.65;;;;;;;;;;4740769;30;20024;-80
2022/12/03 16:04:27;;;;;;;27.80;10.88;;;;;;;;;;4760157;30;20131;-80
2022/12/03 16:06:53;;;;;;;25.40;10.23;;;;;;;;;;4750389;30;20115;-80
2022/12/03 16:09:18;;;;;;;26.27;10.70;;;;;;;;;;4754467;30;20404;-79
2022/12/03 16:11:43;;;;;;;24.40;9.95;;;;;;;;;;4759349;30;20031;-80
2022/12/03 16:14:09;;;;;;;26.02;10.68;;;;;;;;;;4765646;30;20488;-80
2022/12/03 16:16:34;;;;;;;21.38;8.85;;;;;;;;;;4774592;30;20043;-80
2022/12/03 16:18:59;;;;;;;22.50;8.50;;;;;;;;;;4766405;30;20040;-80
2022/12/03 16:21:25;;;;;;;24.58;9.35;;;;;;;;;;4765001;30;20389;-80
2022/12/03 16:23:50;;;;;;;21.85;9.45;;;;;;;;;;4772753;30;20028;-80
2022/12/03 16:26:16;;;;;;;30.85;10.35;;;;;;;;;;4765798;30;20446;-79
2022/12/03 16:28:41;;;;;;;28.67;9.88;;;;;;;;;;4770900;30;20040;-80
2022/12/03 16:31:06;;;;;;;23.20;10.50;;;;;;;;;;4778702;30;20031;-80
2022/12/03 16:33:32;;;;;;;26.55;10.35;;;;;;;;;;4773903;30;20023;-80
2022/12/03 16:35:57;;;;;;;25.85;9.43;;;;;;;;;;4764513;30;20447;-80
2022/12/03 16:38:22;;;;;;;26.67;10.98;;;;;;;;;;4751636;30;20043;-80
2022/12/03 16:40:48;;;;;;;27.33;9.70;;;;;;;;;;4770693;30;20417;-80
2022/12/03 16:43:13;;;;;;;23.58;9.43;;;;;;;;;;4762575;30;20027;-80
2022/12/03 16:48:07;;;;;;;23.33;9.88;;;;;;;;;;4767038;30;20032;-80
2022/12/03 16:50:33;;;;;;;29.38;11.13;;;;;;;;;;4752546;30;20038;-80
2022/12/03 16:52:58;;;;;;;23.60;9.32;;;;;;;;;;4771005;30;20405;-80
2022/12/03 16:55:24;;;;;;;22.88;9.05;;;;;;;;;;4757548;30;20446;-80
2022/12/03 16:57:49;;;;;;;24.33;10.25;;;;;;;;;;4766519;30;20047;-80
2022/12/03 17:00:15;;;;;;;27.13;9.90;;;;;;;;;;4773227;30;20037;-79
2022/12/03 17:02:40;;;;;;;26.00;10.55;;;;;;;;;;4774365;30;20039;-80
2022/12/03 17:05:06;;;;;;;30.73;11.20;;;;;;;;;;4760028;30;20110;-80
2022/12/03 17:07:31;;;;;;;25.35;10.32;;;;;;;;;;4773050;30;20043;-80
2022/12/03 17:09:57;;;;;;;22.75;10.10;;;;;;;;;;4753056;30;20059;-80